航空気象通報

ウインドサーファーのための航空気象通報による風予報です。

10/10-10/12の航空気象通報

2016年10月11日 00時02分38秒 | TAF

羽田空港
TAF RJTT 101108Z 1012/1118 02016KT 9999 FEW020 BKN040
日本時間10日21時-12日03時:020度から16ノットの風

静岡空港
TAF RJNS 101105Z 1012/1118 04006KT 9999 FEW020 BKN040
BECMG 1109/1112 34004KT
日本時間10日21時-11日18時:040度から6ノットの風
18-21時:風が変化
21時-12日03時:340度から4ノットの風

福岡空港
TAF RJFF 101105Z 1012/1118 04005KT 9999 FEW030
BECMG 1012/1014 07003KT
BECMG 1100/1103 01010KT
BECMG 1112/1115 12003KT
日本時間10日21時:040度から5ノットの風
21-23時:風が変化
23時-11日09時:070度から3ノットの風
09-12時:風が変化
12-21時:010度から10ノットの風
21-24時:風が変化
12日00-03時:120度から3ノットの風

那覇空港
TAF ROAH 101106Z 1012/1118 07006KT 9999 FEW010 SCT025
BECMG 1100/1103 22007KT
BECMG 1109/1112 01009KT
日本時間10日21時-11日09時:070度から6ノットの風
09-12時:風が変化
12-18時:220度から7ノットの風
18-21時:風が変化
21時-12日03時:010度から9ノットの風

石垣空港
TAF ROIG 101115Z 1012/1118 12003KT 9999 FEW010 SCT020
BECMG 1018/1020 17006KT
TEMPO 1018/1021 FEW006 BKN008
BECMG 1106/1109 07003KT
日本時間10日21時-11日03時:120度から3ノットの風
03-05時:風が変化
05-15時:170度から6ノットの風
15-18時:風が変化
18時-12日03時:070度から3ノットの風

マウイのカフルイ空港
PHOG 101233Z 1012/1112 04006KT P6SM FEW030 SCT050
FM102000 04017G24KT P6SM SCT030 BKN060
FM110000 05020G28KT P6SM VCSH SCT025 BKN045
FM110600 05012KT P6SM FEW025 SCT045 AMD LTD TO VIS AND WIND TIL 101600
ハワイ時間10日02-10時:040度から6ノットの風
10-14時:040度から17ノット、突風24ノット
14-20時:050度から20ノット、突風28ノット
20時-11日02時:050度から12ノットの風

サイパン空港
TAF PGSN 101120Z 1012/1112 07007KT P6SM SCT020 SCT120
マリアナ時間10日22時-11日22時:070度から7ノットの風

ジャンル:
お天気
コメント   この記事についてブログを書く
この記事をはてなブックマークに追加
« 10/7-10/9の航空気象通報 | トップ | 10/11-10/13の航空気象通報 »
最近の画像もっと見る

コメントを投稿

ブログ作成者から承認されるまでコメントは反映されません。

TAF」カテゴリの最新記事

トラックバック

この記事のトラックバック  Ping-URL
ブログ作成者から承認されるまでトラックバックは反映されません。
  • 30日以上前の記事に対するトラックバックは受け取らないよう設定されております。
  • 送信元の記事内容が半角英数のみのトラックバックは受け取らないよう設定されております。
  • このブログへのリンクがない記事からのトラックバックは受け取らないよう設定されております。
  • ※ブログ管理者のみ、編集画面で設定の変更が可能です。